sensor_id;sensor_type;location;lat;lon;timestamp;P1;durP1;ratioP1;P2;durP2;ratioP2
29246;SDS011;16272;48.188;9.964;2023-08-30T00:01:45;16.13;;;6.97;;
29246;SDS011;16272;48.188;9.964;2023-08-30T00:04:11;16.45;;;7.75;;
29246;SDS011;16272;48.188;9.964;2023-08-30T00:06:37;14.80;;;7.30;;
29246;SDS011;16272;48.188;9.964;2023-08-30T00:09:02;14.40;;;7.30;;
29246;SDS011;16272;48.188;9.964;2023-08-30T00:11:28;15.90;;;7.43;;
29246;SDS011;16272;48.188;9.964;2023-08-30T00:14:02;16.15;;;7.63;;
29246;SDS011;16272;48.188;9.964;2023-08-30T00:16:29;15.40;;;7.13;;
29246;SDS011;16272;48.188;9.964;2023-08-30T00:18:54;16.03;;;7.57;;
29246;SDS011;16272;48.188;9.964;2023-08-30T00:21:20;13.73;;;7.23;;
29246;SDS011;16272;48.188;9.964;2023-08-30T00:23:45;15.73;;;7.68;;
29246;SDS011;16272;48.188;9.964;2023-08-30T00:26:11;14.80;;;7.80;;
29246;SDS011;16272;48.188;9.964;2023-08-30T00:28:36;14.20;;;7.20;;
29246;SDS011;16272;48.188;9.964;2023-08-30T00:31:01;14.17;;;7.03;;
29246;SDS011;16272;48.188;9.964;2023-08-30T00:33:26;14.57;;;7.20;;
29246;SDS011;16272;48.188;9.964;2023-08-30T00:35:58;14.53;;;7.90;;
29246;SDS011;16272;48.188;9.964;2023-08-30T00:38:25;14.52;;;7.30;;
29246;SDS011;16272;48.188;9.964;2023-08-30T00:40:52;15.75;;;7.45;;
29246;SDS011;16272;48.188;9.964;2023-08-30T00:43:17;15.43;;;7.13;;
29246;SDS011;16272;48.188;9.964;2023-08-30T00:45:43;16.40;;;7.85;;
29246;SDS011;16272;48.188;9.964;2023-08-30T00:48:09;15.37;;;7.23;;
29246;SDS011;16272;48.188;9.964;2023-08-30T00:50:36;14.65;;;7.35;;
29246;SDS011;16272;48.188;9.964;2023-08-30T00:53:03;14.20;;;7.22;;
29246;SDS011;16272;48.188;9.964;2023-08-30T00:55:31;14.73;;;7.35;;
29246;SDS011;16272;48.188;9.964;2023-08-30T00:57:58;15.43;;;7.80;;
29246;SDS011;16272;48.188;9.964;2023-08-30T01:00:24;15.43;;;7.23;;
29246;SDS011;16272;48.188;9.964;2023-08-30T01:02:50;14.70;;;7.10;;
29246;SDS011;16272;48.188;9.964;2023-08-30T01:05:15;14.97;;;7.30;;
29246;SDS011;16272;48.188;9.964;2023-08-30T01:07:41;14.83;;;7.60;;
29246;SDS011;16272;48.188;9.964;2023-08-30T01:10:06;16.20;;;7.67;;
29246;SDS011;16272;48.188;9.964;2023-08-30T01:15:33;15.65;;;7.40;;
29246;SDS011;16272;48.188;9.964;2023-08-30T01:18:00;15.65;;;7.40;;
29246;SDS011;16272;48.188;9.964;2023-08-30T01:20:29;15.43;;;7.38;;
29246;SDS011;16272;48.188;9.964;2023-08-30T01:23:06;14.90;;;7.07;;
29246;SDS011;16272;48.188;9.964;2023-08-30T01:25:50;16.17;;;7.50;;
29246;SDS011;16272;48.188;9.964;2023-08-30T01:28:22;14.88;;;6.97;;
29246;SDS011;16272;48.188;9.964;2023-08-30T01:30:49;14.80;;;6.88;;
29246;SDS011;16272;48.188;9.964;2023-08-30T01:33:19;16.33;;;7.70;;
29246;SDS011;16272;48.188;9.964;2023-08-30T01:35:45;14.70;;;7.13;;
29246;SDS011;16272;48.188;9.964;2023-08-30T01:38:11;14.35;;;7.13;;
29246;SDS011;16272;48.188;9.964;2023-08-30T01:40:42;14.98;;;6.95;;
29246;SDS011;16272;48.188;9.964;2023-08-30T01:43:09;15.70;;;7.18;;
29246;SDS011;16272;48.188;9.964;2023-08-30T01:45:36;18.17;;;8.15;;
29246;SDS011;16272;48.188;9.964;2023-08-30T01:48:04;16.43;;;7.37;;
29246;SDS011;16272;48.188;9.964;2023-08-30T01:50:32;16.35;;;7.78;;
29246;SDS011;16272;48.188;9.964;2023-08-30T01:52:59;17.08;;;7.80;;
29246;SDS011;16272;48.188;9.964;2023-08-30T01:55:24;16.67;;;7.95;;
29246;SDS011;16272;48.188;9.964;2023-08-30T01:57:53;17.37;;;8.67;;
29246;SDS011;16272;48.188;9.964;2023-08-30T02:00:18;17.07;;;7.67;;
29246;SDS011;16272;48.188;9.964;2023-08-30T02:02:44;18.67;;;8.20;;
29246;SDS011;16272;48.188;9.964;2023-08-30T02:05:10;18.80;;;8.57;;
29246;SDS011;16272;48.188;9.964;2023-08-30T02:10:08;20.98;;;9.13;;
29246;SDS011;16272;48.188;9.964;2023-08-30T02:12:39;18.27;;;7.95;;
29246;SDS011;16272;48.188;9.964;2023-08-30T02:15:11;17.80;;;7.82;;
29246;SDS011;16272;48.188;9.964;2023-08-30T02:17:38;21.83;;;9.03;;
29246;SDS011;16272;48.188;9.964;2023-08-30T02:20:04;19.65;;;8.95;;
29246;SDS011;16272;48.188;9.964;2023-08-30T02:22:31;19.13;;;8.15;;
29246;SDS011;16272;48.188;9.964;2023-08-30T02:24:56;19.33;;;8.50;;
29246;SDS011;16272;48.188;9.964;2023-08-30T02:27:22;20.42;;;9.63;;
29246;SDS011;16272;48.188;9.964;2023-08-30T02:29:48;18.60;;;8.63;;
29246;SDS011;16272;48.188;9.964;2023-08-30T02:32:13;19.67;;;8.30;;
29246;SDS011;16272;48.188;9.964;2023-08-30T02:34:40;18.38;;;8.35;;
29246;SDS011;16272;48.188;9.964;2023-08-30T02:37:05;18.03;;;8.30;;
29246;SDS011;16272;48.188;9.964;2023-08-30T02:39:30;18.77;;;8.23;;
29246;SDS011;16272;48.188;9.964;2023-08-30T02:41:55;18.67;;;8.43;;
29246;SDS011;16272;48.188;9.964;2023-08-30T02:44:21;16.40;;;7.63;;
29246;SDS011;16272;48.188;9.964;2023-08-30T02:49:49;16.35;;;7.88;;
29246;SDS011;16272;48.188;9.964;2023-08-30T02:52:14;18.17;;;7.73;;
29246;SDS011;16272;48.188;9.964;2023-08-30T02:54:40;18.17;;;8.10;;
29246;SDS011;16272;48.188;9.964;2023-08-30T02:57:05;16.38;;;7.93;;
29246;SDS011;16272;48.188;9.964;2023-08-30T02:59:30;17.10;;;8.27;;
29246;SDS011;16272;48.188;9.964;2023-08-30T03:01:56;17.23;;;7.97;;
29246;SDS011;16272;48.188;9.964;2023-08-30T03:04:21;16.67;;;8.20;;
29246;SDS011;16272;48.188;9.964;2023-08-30T03:06:46;16.40;;;7.93;;
29246;SDS011;16272;48.188;9.964;2023-08-30T03:09:12;16.63;;;7.40;;
29246;SDS011;16272;48.188;9.964;2023-08-30T03:11:37;16.60;;;7.80;;
29246;SDS011;16272;48.188;9.964;2023-08-30T03:14:02;15.83;;;7.03;;
29246;SDS011;16272;48.188;9.964;2023-08-30T03:16:28;16.67;;;7.50;;
29246;SDS011;16272;48.188;9.964;2023-08-30T03:18:54;17.45;;;7.43;;
29246;SDS011;16272;48.188;9.964;2023-08-30T03:21:19;15.90;;;7.23;;
29246;SDS011;16272;48.188;9.964;2023-08-30T03:23:44;17.93;;;7.77;;
29246;SDS011;16272;48.188;9.964;2023-08-30T03:26:13;17.30;;;7.37;;
29246;SDS011;16272;48.188;9.964;2023-08-30T03:28:40;16.23;;;7.80;;
29246;SDS011;16272;48.188;9.964;2023-08-30T03:33:38;17.70;;;7.50;;
29246;SDS011;16272;48.188;9.964;2023-08-30T03:36:06;16.77;;;7.65;;
29246;SDS011;16272;48.188;9.964;2023-08-30T03:38:31;16.13;;;7.60;;
29246;SDS011;16272;48.188;9.964;2023-08-30T03:40:57;18.23;;;8.00;;
29246;SDS011;16272;48.188;9.964;2023-08-30T03:43:22;16.00;;;7.67;;
29246;SDS011;16272;48.188;9.964;2023-08-30T03:45:47;15.53;;;6.77;;
29246;SDS011;16272;48.188;9.964;2023-08-30T03:48:13;16.80;;;7.47;;
29246;SDS011;16272;48.188;9.964;2023-08-30T03:50:38;16.83;;;7.40;;
29246;SDS011;16272;48.188;9.964;2023-08-30T03:53:03;17.17;;;7.93;;
29246;SDS011;16272;48.188;9.964;2023-08-30T03:55:29;18.20;;;7.63;;
29246;SDS011;16272;48.188;9.964;2023-08-30T03:57:54;17.67;;;7.83;;
29246;SDS011;16272;48.188;9.964;2023-08-30T04:00:19;17.77;;;8.20;;
29246;SDS011;16272;48.188;9.964;2023-08-30T04:02:45;16.53;;;7.57;;
29246;SDS011;16272;48.188;9.964;2023-08-30T04:05:10;17.30;;;7.67;;
29246;SDS011;16272;48.188;9.964;2023-08-30T04:07:35;19.30;;;7.83;;
29246;SDS011;16272;48.188;9.964;2023-08-30T04:10:01;16.50;;;7.32;;
29246;SDS011;16272;48.188;9.964;2023-08-30T04:12:31;19.67;;;8.53;;
29246;SDS011;16272;48.188;9.964;2023-08-30T04:14:56;19.77;;;8.38;;
29246;SDS011;16272;48.188;9.964;2023-08-30T04:17:21;17.03;;;7.70;;
29246;SDS011;16272;48.188;9.964;2023-08-30T04:19:46;17.27;;;8.20;;
29246;SDS011;16272;48.188;9.964;2023-08-30T04:22:12;15.83;;;7.27;;
29246;SDS011;16272;48.188;9.964;2023-08-30T04:24:37;15.10;;;7.07;;
29246;SDS011;16272;48.188;9.964;2023-08-30T04:27:02;16.33;;;7.30;;
29246;SDS011;16272;48.188;9.964;2023-08-30T04:29:28;17.73;;;7.87;;
29246;SDS011;16272;48.188;9.964;2023-08-30T04:31:53;16.60;;;7.63;;
29246;SDS011;16272;48.188;9.964;2023-08-30T04:34:19;18.10;;;8.60;;
29246;SDS011;16272;48.188;9.964;2023-08-30T04:36:44;16.80;;;7.40;;
29246;SDS011;16272;48.188;9.964;2023-08-30T04:39:10;15.70;;;7.50;;
29246;SDS011;16272;48.188;9.964;2023-08-30T04:41:35;17.27;;;7.50;;
29246;SDS011;16272;48.188;9.964;2023-08-30T04:44:00;16.70;;;7.77;;
29246;SDS011;16272;48.188;9.964;2023-08-30T04:46:25;15.83;;;7.47;;
29246;SDS011;16272;48.188;9.964;2023-08-30T04:48:51;16.43;;;7.27;;
29246;SDS011;16272;48.188;9.964;2023-08-30T04:51:16;17.80;;;7.57;;
29246;SDS011;16272;48.188;9.964;2023-08-30T04:53:41;17.23;;;7.90;;
29246;SDS011;16272;48.188;9.964;2023-08-30T04:56:11;17.45;;;7.80;;
29246;SDS011;16272;48.188;9.964;2023-08-30T04:58:37;17.80;;;8.38;;
29246;SDS011;16272;48.188;9.964;2023-08-30T05:01:04;16.17;;;7.87;;
29246;SDS011;16272;48.188;9.964;2023-08-30T05:03:29;16.17;;;7.50;;
29246;SDS011;16272;48.188;9.964;2023-08-30T05:05:55;16.47;;;7.43;;
29246;SDS011;16272;48.188;9.964;2023-08-30T05:08:20;16.87;;;8.33;;
29246;SDS011;16272;48.188;9.964;2023-08-30T05:10:45;19.73;;;8.37;;
29246;SDS011;16272;48.188;9.964;2023-08-30T05:13:11;17.40;;;8.10;;
29246;SDS011;16272;48.188;9.964;2023-08-30T05:15:37;15.80;;;8.00;;
29246;SDS011;16272;48.188;9.964;2023-08-30T05:18:02;16.07;;;7.03;;
29246;SDS011;16272;48.188;9.964;2023-08-30T05:20:28;17.08;;;8.07;;
29246;SDS011;16272;48.188;9.964;2023-08-30T05:22:53;17.53;;;7.97;;
29246;SDS011;16272;48.188;9.964;2023-08-30T05:25:19;17.80;;;7.93;;
29246;SDS011;16272;48.188;9.964;2023-08-30T05:27:44;17.00;;;7.77;;
29246;SDS011;16272;48.188;9.964;2023-08-30T05:30:09;18.90;;;7.90;;
29246;SDS011;16272;48.188;9.964;2023-08-30T05:32:35;17.08;;;7.72;;
29246;SDS011;16272;48.188;9.964;2023-08-30T05:35:01;18.60;;;8.53;;
29246;SDS011;16272;48.188;9.964;2023-08-30T05:37:26;18.67;;;8.97;;
29246;SDS011;16272;48.188;9.964;2023-08-30T05:39:51;18.10;;;7.90;;
29246;SDS011;16272;48.188;9.964;2023-08-30T05:42:16;16.27;;;8.03;;
29246;SDS011;16272;48.188;9.964;2023-08-30T05:44:42;19.07;;;8.03;;
29246;SDS011;16272;48.188;9.964;2023-08-30T05:47:07;16.77;;;8.23;;
29246;SDS011;16272;48.188;9.964;2023-08-30T05:49:32;16.77;;;8.10;;
29246;SDS011;16272;48.188;9.964;2023-08-30T05:51:58;16.88;;;8.38;;
29246;SDS011;16272;48.188;9.964;2023-08-30T05:54:23;16.10;;;8.03;;
29246;SDS011;16272;48.188;9.964;2023-08-30T05:56:50;16.33;;;8.03;;
29246;SDS011;16272;48.188;9.964;2023-08-30T05:59:15;16.57;;;7.80;;
29246;SDS011;16272;48.188;9.964;2023-08-30T06:01:41;16.77;;;7.93;;
29246;SDS011;16272;48.188;9.964;2023-08-30T06:04:06;17.03;;;7.80;;
29246;SDS011;16272;48.188;9.964;2023-08-30T06:06:32;15.97;;;7.47;;
29246;SDS011;16272;48.188;9.964;2023-08-30T06:08:57;15.33;;;7.80;;
29246;SDS011;16272;48.188;9.964;2023-08-30T06:11:23;16.90;;;7.53;;
29246;SDS011;16272;48.188;9.964;2023-08-30T06:13:48;16.60;;;7.90;;
29246;SDS011;16272;48.188;9.964;2023-08-30T06:16:14;16.20;;;7.78;;
29246;SDS011;16272;48.188;9.964;2023-08-30T06:18:39;15.70;;;7.67;;
29246;SDS011;16272;48.188;9.964;2023-08-30T06:21:04;15.07;;;6.90;;
29246;SDS011;16272;48.188;9.964;2023-08-30T06:23:30;15.97;;;7.50;;
29246;SDS011;16272;48.188;9.964;2023-08-30T06:25:55;16.57;;;8.13;;
29246;SDS011;16272;48.188;9.964;2023-08-30T06:28:22;16.10;;;7.75;;
29246;SDS011;16272;48.188;9.964;2023-08-30T06:30:48;17.60;;;7.65;;
29246;SDS011;16272;48.188;9.964;2023-08-30T06:33:13;15.83;;;7.30;;
29246;SDS011;16272;48.188;9.964;2023-08-30T06:35:38;17.73;;;7.87;;
29246;SDS011;16272;48.188;9.964;2023-08-30T06:38:04;16.43;;;7.60;;
29246;SDS011;16272;48.188;9.964;2023-08-30T06:40:30;17.33;;;7.45;;
29246;SDS011;16272;48.188;9.964;2023-08-30T06:42:55;17.27;;;7.83;;
29246;SDS011;16272;48.188;9.964;2023-08-30T06:45:20;17.00;;;7.43;;
29246;SDS011;16272;48.188;9.964;2023-08-30T06:47:47;16.63;;;6.87;;
29246;SDS011;16272;48.188;9.964;2023-08-30T06:50:13;16.60;;;7.68;;
29246;SDS011;16272;48.188;9.964;2023-08-30T06:52:38;16.03;;;7.00;;
29246;SDS011;16272;48.188;9.964;2023-08-30T06:55:04;15.77;;;7.53;;
29246;SDS011;16272;48.188;9.964;2023-08-30T06:57:29;17.42;;;7.25;;
29246;SDS011;16272;48.188;9.964;2023-08-30T06:59:54;16.63;;;7.90;;
29246;SDS011;16272;48.188;9.964;2023-08-30T07:02:20;16.07;;;7.07;;
29246;SDS011;16272;48.188;9.964;2023-08-30T07:04:45;15.83;;;7.10;;
29246;SDS011;16272;48.188;9.964;2023-08-30T07:07:11;15.60;;;7.33;;
29246;SDS011;16272;48.188;9.964;2023-08-30T07:09:38;15.15;;;7.13;;
29246;SDS011;16272;48.188;9.964;2023-08-30T07:12:03;15.83;;;7.90;;
29246;SDS011;16272;48.188;9.964;2023-08-30T07:14:29;15.88;;;6.78;;
29246;SDS011;16272;48.188;9.964;2023-08-30T07:16:54;16.47;;;7.23;;
29246;SDS011;16272;48.188;9.964;2023-08-30T07:19:20;16.10;;;7.07;;
29246;SDS011;16272;48.188;9.964;2023-08-30T07:21:45;16.37;;;7.20;;
29246;SDS011;16272;48.188;9.964;2023-08-30T07:24:11;15.17;;;7.57;;
29246;SDS011;16272;48.188;9.964;2023-08-30T07:26:36;16.15;;;7.40;;
29246;SDS011;16272;48.188;9.964;2023-08-30T07:29:02;17.87;;;8.00;;
29246;SDS011;16272;48.188;9.964;2023-08-30T07:31:30;18.33;;;7.80;;
29246;SDS011;16272;48.188;9.964;2023-08-30T07:33:56;17.98;;;7.50;;
29246;SDS011;16272;48.188;9.964;2023-08-30T07:36:23;16.30;;;7.63;;
29246;SDS011;16272;48.188;9.964;2023-08-30T07:38:48;16.53;;;7.67;;
29246;SDS011;16272;48.188;9.964;2023-08-30T07:41:13;18.23;;;7.90;;
29246;SDS011;16272;48.188;9.964;2023-08-30T07:43:39;17.90;;;7.70;;
29246;SDS011;16272;48.188;9.964;2023-08-30T07:46:04;16.03;;;7.07;;
29246;SDS011;16272;48.188;9.964;2023-08-30T07:48:29;16.07;;;6.83;;
29246;SDS011;16272;48.188;9.964;2023-08-30T07:50:55;16.50;;;7.20;;
29246;SDS011;16272;48.188;9.964;2023-08-30T07:53:20;17.57;;;7.30;;
29246;SDS011;16272;48.188;9.964;2023-08-30T07:55:49;15.75;;;7.30;;
29246;SDS011;16272;48.188;9.964;2023-08-30T07:58:15;14.90;;;7.53;;
29246;SDS011;16272;48.188;9.964;2023-08-30T08:00:40;15.55;;;7.50;;
29246;SDS011;16272;48.188;9.964;2023-08-30T08:03:06;15.77;;;7.33;;
29246;SDS011;16272;48.188;9.964;2023-08-30T08:05:31;15.90;;;7.00;;
29246;SDS011;16272;48.188;9.964;2023-08-30T08:07:58;17.38;;;7.88;;
29246;SDS011;16272;48.188;9.964;2023-08-30T08:10:26;15.97;;;7.87;;
29246;SDS011;16272;48.188;9.964;2023-08-30T08:12:51;15.97;;;7.27;;
29246;SDS011;16272;48.188;9.964;2023-08-30T08:15:16;14.53;;;7.10;;
29246;SDS011;16272;48.188;9.964;2023-08-30T08:17:41;15.23;;;6.80;;
29246;SDS011;16272;48.188;9.964;2023-08-30T08:20:07;15.27;;;6.87;;
29246;SDS011;16272;48.188;9.964;2023-08-30T08:22:32;14.77;;;7.00;;
29246;SDS011;16272;48.188;9.964;2023-08-30T08:24:57;15.03;;;7.37;;
29246;SDS011;16272;48.188;9.964;2023-08-30T08:27:26;16.67;;;7.17;;
29246;SDS011;16272;48.188;9.964;2023-08-30T08:29:51;15.15;;;6.90;;
29246;SDS011;16272;48.188;9.964;2023-08-30T08:32:16;15.17;;;7.00;;
29246;SDS011;16272;48.188;9.964;2023-08-30T08:34:42;14.67;;;6.33;;
29246;SDS011;16272;48.188;9.964;2023-08-30T08:37:07;14.63;;;6.60;;
29246;SDS011;16272;48.188;9.964;2023-08-30T08:39:33;15.57;;;7.13;;
29246;SDS011;16272;48.188;9.964;2023-08-30T08:41:59;15.37;;;7.07;;
29246;SDS011;16272;48.188;9.964;2023-08-30T08:44:24;14.52;;;6.50;;
29246;SDS011;16272;48.188;9.964;2023-08-30T08:46:51;14.33;;;6.70;;
29246;SDS011;16272;48.188;9.964;2023-08-30T08:49:17;13.82;;;6.22;;
29246;SDS011;16272;48.188;9.964;2023-08-30T08:51:43;12.80;;;6.43;;
29246;SDS011;16272;48.188;9.964;2023-08-30T08:54:10;14.95;;;6.85;;
29246;SDS011;16272;48.188;9.964;2023-08-30T08:56:37;13.15;;;6.50;;
29246;SDS011;16272;48.188;9.964;2023-08-30T08:59:03;14.35;;;7.00;;
29246;SDS011;16272;48.188;9.964;2023-08-30T09:01:33;14.05;;;6.90;;
29246;SDS011;16272;48.188;9.964;2023-08-30T09:04:01;12.70;;;6.47;;
29246;SDS011;16272;48.188;9.964;2023-08-30T09:06:33;14.15;;;6.50;;
29246;SDS011;16272;48.188;9.964;2023-08-30T09:08:59;13.10;;;6.45;;
29246;SDS011;16272;48.188;9.964;2023-08-30T09:11:25;12.50;;;5.32;;
29246;SDS011;16272;48.188;9.964;2023-08-30T09:13:51;13.30;;;6.30;;
29246;SDS011;16272;48.188;9.964;2023-08-30T09:16:16;15.43;;;6.47;;
29246;SDS011;16272;48.188;9.964;2023-08-30T09:18:42;13.37;;;6.63;;
29246;SDS011;16272;48.188;9.964;2023-08-30T09:23:33;13.00;;;5.68;;
29246;SDS011;16272;48.188;9.964;2023-08-30T09:25:59;12.80;;;5.93;;
29246;SDS011;16272;48.188;9.964;2023-08-30T09:28:24;11.70;;;5.53;;
29246;SDS011;16272;48.188;9.964;2023-08-30T09:30:50;11.73;;;5.73;;
29246;SDS011;16272;48.188;9.964;2023-08-30T09:33:20;12.57;;;5.50;;
29246;SDS011;16272;48.188;9.964;2023-08-30T09:35:54;12.73;;;5.70;;
29246;SDS011;16272;48.188;9.964;2023-08-30T09:38:19;11.55;;;5.80;;
29246;SDS011;16272;48.188;9.964;2023-08-30T09:40:45;10.83;;;5.13;;
29246;SDS011;16272;48.188;9.964;2023-08-30T09:43:11;10.60;;;5.35;;
29246;SDS011;16272;48.188;9.964;2023-08-30T09:45:38;10.60;;;5.80;;
29246;SDS011;16272;48.188;9.964;2023-08-30T09:48:03;10.80;;;5.37;;
29246;SDS011;16272;48.188;9.964;2023-08-30T09:50:31;11.75;;;5.22;;
29246;SDS011;16272;48.188;9.964;2023-08-30T09:52:59;10.77;;;4.70;;
29246;SDS011;16272;48.188;9.964;2023-08-30T09:55:31;9.48;;;4.80;;
29246;SDS011;16272;48.188;9.964;2023-08-30T09:57:56;9.37;;;5.07;;
29246;SDS011;16272;48.188;9.964;2023-08-30T10:00:22;10.37;;;4.80;;
29246;SDS011;16272;48.188;9.964;2023-08-30T10:02:47;9.40;;;4.95;;
29246;SDS011;16272;48.188;9.964;2023-08-30T10:05:13;8.80;;;4.90;;
29246;SDS011;16272;48.188;9.964;2023-08-30T10:07:39;11.13;;;4.70;;
29246;SDS011;16272;48.188;9.964;2023-08-30T10:10:05;9.23;;;4.78;;
29246;SDS011;16272;48.188;9.964;2023-08-30T10:12:32;8.97;;;4.80;;
29246;SDS011;16272;48.188;9.964;2023-08-30T10:14:57;10.35;;;4.80;;
29246;SDS011;16272;48.188;9.964;2023-08-30T10:17:23;9.13;;;4.67;;
29246;SDS011;16272;48.188;9.964;2023-08-30T10:19:53;8.52;;;4.55;;
29246;SDS011;16272;48.188;9.964;2023-08-30T10:22:20;8.80;;;4.40;;
29246;SDS011;16272;48.188;9.964;2023-08-30T10:24:49;9.10;;;4.60;;
29246;SDS011;16272;48.188;9.964;2023-08-30T10:27:19;8.30;;;4.50;;
29246;SDS011;16272;48.188;9.964;2023-08-30T10:29:47;8.82;;;4.70;;
29246;SDS011;16272;48.188;9.964;2023-08-30T10:32:21;9.20;;;4.32;;
29246;SDS011;16272;48.188;9.964;2023-08-30T10:34:47;9.43;;;4.40;;
29246;SDS011;16272;48.188;9.964;2023-08-30T10:37:21;8.57;;;4.60;;
29246;SDS011;16272;48.188;9.964;2023-08-30T10:39:47;8.47;;;4.10;;
29246;SDS011;16272;48.188;9.964;2023-08-30T10:42:14;8.63;;;3.88;;
29246;SDS011;16272;48.188;9.964;2023-08-30T10:44:50;9.65;;;4.20;;
29246;SDS011;16272;48.188;9.964;2023-08-30T10:47:28;8.60;;;4.03;;
29246;SDS011;16272;48.188;9.964;2023-08-30T10:49:56;9.40;;;4.22;;
29246;SDS011;16272;48.188;9.964;2023-08-30T10:52:22;7.90;;;4.18;;
29246;SDS011;16272;48.188;9.964;2023-08-30T10:54:48;7.78;;;3.70;;
29246;SDS011;16272;48.188;9.964;2023-08-30T10:57:14;7.30;;;3.53;;
29246;SDS011;16272;48.188;9.964;2023-08-30T11:00:03;7.28;;;3.35;;
29246;SDS011;16272;48.188;9.964;2023-08-30T11:02:30;7.18;;;3.40;;
29246;SDS011;16272;48.188;9.964;2023-08-30T11:04:57;7.50;;;3.50;;
29246;SDS011;16272;48.188;9.964;2023-08-30T11:07:26;8.90;;;3.72;;
29246;SDS011;16272;48.188;9.964;2023-08-30T11:09:52;8.13;;;3.90;;
29246;SDS011;16272;48.188;9.964;2023-08-30T11:12:20;8.73;;;4.18;;
29246;SDS011;16272;48.188;9.964;2023-08-30T11:14:49;7.50;;;3.57;;
29246;SDS011;16272;48.188;9.964;2023-08-30T11:17:18;9.48;;;3.80;;
29246;SDS011;16272;48.188;9.964;2023-08-30T11:19:44;7.82;;;3.72;;
29246;SDS011;16272;48.188;9.964;2023-08-30T11:22:10;8.82;;;3.58;;
29246;SDS011;16272;48.188;9.964;2023-08-30T11:24:35;8.30;;;3.90;;
29246;SDS011;16272;48.188;9.964;2023-08-30T11:27:01;7.93;;;4.20;;
29246;SDS011;16272;48.188;9.964;2023-08-30T11:29:26;8.13;;;3.53;;
29246;SDS011;16272;48.188;9.964;2023-08-30T11:31:52;8.07;;;3.30;;
29246;SDS011;16272;48.188;9.964;2023-08-30T11:34:19;7.57;;;3.50;;
29246;SDS011;16272;48.188;9.964;2023-08-30T11:36:47;7.33;;;3.13;;
29246;SDS011;16272;48.188;9.964;2023-08-30T11:39:13;6.70;;;2.80;;
29246;SDS011;16272;48.188;9.964;2023-08-30T11:41:38;7.07;;;2.63;;
29246;SDS011;16272;48.188;9.964;2023-08-30T11:44:04;6.38;;;2.78;;
29246;SDS011;16272;48.188;9.964;2023-08-30T11:46:30;6.22;;;2.85;;
29246;SDS011;16272;48.188;9.964;2023-08-30T11:48:57;6.80;;;3.28;;
29246;SDS011;16272;48.188;9.964;2023-08-30T11:51:22;6.23;;;2.90;;
29246;SDS011;16272;48.188;9.964;2023-08-30T11:53:47;6.50;;;2.63;;
29246;SDS011;16272;48.188;9.964;2023-08-30T11:56:14;6.07;;;2.70;;
29246;SDS011;16272;48.188;9.964;2023-08-30T11:58:40;6.47;;;2.60;;
29246;SDS011;16272;48.188;9.964;2023-08-30T12:01:06;6.03;;;2.60;;
29246;SDS011;16272;48.188;9.964;2023-08-30T12:03:32;6.23;;;2.43;;
29246;SDS011;16272;48.188;9.964;2023-08-30T12:05:58;6.55;;;2.90;;
29246;SDS011;16272;48.188;9.964;2023-08-30T12:08:24;6.40;;;2.87;;
29246;SDS011;16272;48.188;9.964;2023-08-30T12:10:51;5.97;;;2.60;;
29246;SDS011;16272;48.188;9.964;2023-08-30T12:13:21;6.05;;;2.63;;
29246;SDS011;16272;48.188;9.964;2023-08-30T12:15:50;6.53;;;2.60;;
29246;SDS011;16272;48.188;9.964;2023-08-30T12:18:22;6.50;;;2.67;;
29246;SDS011;16272;48.188;9.964;2023-08-30T12:20:55;6.97;;;2.80;;
29246;SDS011;16272;48.188;9.964;2023-08-30T12:23:31;6.85;;;2.58;;
29246;SDS011;16272;48.188;9.964;2023-08-30T12:25:58;5.78;;;2.45;;
29246;SDS011;16272;48.188;9.964;2023-08-30T12:28:34;6.82;;;2.67;;
29246;SDS011;16272;48.188;9.964;2023-08-30T12:31:01;7.05;;;2.97;;
29246;SDS011;16272;48.188;9.964;2023-08-30T12:33:29;5.40;;;2.27;;
29246;SDS011;16272;48.188;9.964;2023-08-30T12:35:55;6.20;;;2.42;;
29246;SDS011;16272;48.188;9.964;2023-08-30T12:38:21;5.93;;;2.38;;
29246;SDS011;16272;48.188;9.964;2023-08-30T12:40:47;6.00;;;2.63;;
29246;SDS011;16272;48.188;9.964;2023-08-30T12:43:14;6.53;;;2.63;;
29246;SDS011;16272;48.188;9.964;2023-08-30T12:45:41;5.85;;;2.30;;
29246;SDS011;16272;48.188;9.964;2023-08-30T12:48:07;5.88;;;2.10;;
29246;SDS011;16272;48.188;9.964;2023-08-30T12:50:34;5.28;;;2.15;;
29246;SDS011;16272;48.188;9.964;2023-08-30T12:53:00;5.40;;;2.08;;
29246;SDS011;16272;48.188;9.964;2023-08-30T12:55:26;6.13;;;2.00;;
29246;SDS011;16272;48.188;9.964;2023-08-30T12:57:51;5.40;;;2.03;;
29246;SDS011;16272;48.188;9.964;2023-08-30T13:00:18;5.23;;;2.27;;
29246;SDS011;16272;48.188;9.964;2023-08-30T13:02:43;5.47;;;2.20;;
29246;SDS011;16272;48.188;9.964;2023-08-30T13:05:08;6.10;;;2.40;;
29246;SDS011;16272;48.188;9.964;2023-08-30T13:07:34;5.50;;;2.20;;
29246;SDS011;16272;48.188;9.964;2023-08-30T13:09:59;5.77;;;2.43;;
29246;SDS011;16272;48.188;9.964;2023-08-30T13:12:24;5.57;;;2.13;;
29246;SDS011;16272;48.188;9.964;2023-08-30T13:14:50;5.60;;;2.30;;
29246;SDS011;16272;48.188;9.964;2023-08-30T13:17:15;5.63;;;2.30;;
29246;SDS011;16272;48.188;9.964;2023-08-30T13:19:42;7.13;;;2.08;;
29246;SDS011;16272;48.188;9.964;2023-08-30T13:22:08;5.35;;;2.03;;
29246;SDS011;16272;48.188;9.964;2023-08-30T13:24:34;5.20;;;1.92;;
29246;SDS011;16272;48.188;9.964;2023-08-30T13:27:00;5.30;;;2.03;;
29246;SDS011;16272;48.188;9.964;2023-08-30T13:29:25;5.97;;;2.40;;
29246;SDS011;16272;48.188;9.964;2023-08-30T13:31:50;6.23;;;2.23;;
29246;SDS011;16272;48.188;9.964;2023-08-30T13:34:16;6.00;;;2.30;;
29246;SDS011;16272;48.188;9.964;2023-08-30T13:36:41;5.77;;;2.43;;
29246;SDS011;16272;48.188;9.964;2023-08-30T13:39:06;5.27;;;2.23;;
29246;SDS011;16272;48.188;9.964;2023-08-30T13:41:31;5.30;;;2.17;;
29246;SDS011;16272;48.188;9.964;2023-08-30T13:43:57;5.50;;;1.97;;
29246;SDS011;16272;48.188;9.964;2023-08-30T13:46:22;6.03;;;2.10;;
29246;SDS011;16272;48.188;9.964;2023-08-30T13:48:47;5.47;;;2.43;;
29246;SDS011;16272;48.188;9.964;2023-08-30T13:51:13;5.90;;;2.23;;
29246;SDS011;16272;48.188;9.964;2023-08-30T13:53:39;6.80;;;2.08;;
29246;SDS011;16272;48.188;9.964;2023-08-30T13:56:04;6.17;;;2.30;;
29246;SDS011;16272;48.188;9.964;2023-08-30T13:58:30;5.80;;;2.13;;
29246;SDS011;16272;48.188;9.964;2023-08-30T14:00:55;5.17;;;1.83;;
29246;SDS011;16272;48.188;9.964;2023-08-30T14:03:20;5.53;;;1.90;;
29246;SDS011;16272;48.188;9.964;2023-08-30T14:05:46;5.70;;;1.83;;
29246;SDS011;16272;48.188;9.964;2023-08-30T14:08:11;5.60;;;2.07;;
29246;SDS011;16272;48.188;9.964;2023-08-30T14:10:36;5.78;;;2.17;;
29246;SDS011;16272;48.188;9.964;2023-08-30T14:13:02;5.13;;;1.77;;
29246;SDS011;16272;48.188;9.964;2023-08-30T14:15:27;7.37;;;2.10;;
29246;SDS011;16272;48.188;9.964;2023-08-30T14:17:52;6.57;;;2.37;;
29246;SDS011;16272;48.188;9.964;2023-08-30T14:20:18;5.20;;;2.10;;
29246;SDS011;16272;48.188;9.964;2023-08-30T14:22:43;5.67;;;2.10;;
29246;SDS011;16272;48.188;9.964;2023-08-30T14:25:08;5.27;;;1.70;;
29246;SDS011;16272;48.188;9.964;2023-08-30T14:27:34;6.53;;;2.15;;
29246;SDS011;16272;48.188;9.964;2023-08-30T14:30:00;5.70;;;1.70;;
29246;SDS011;16272;48.188;9.964;2023-08-30T14:32:25;5.43;;;2.05;;
29246;SDS011;16272;48.188;9.964;2023-08-30T14:34:50;5.50;;;1.80;;
29246;SDS011;16272;48.188;9.964;2023-08-30T14:37:16;5.20;;;1.97;;
29246;SDS011;16272;48.188;9.964;2023-08-30T14:39:41;5.70;;;2.20;;
29246;SDS011;16272;48.188;9.964;2023-08-30T14:42:06;5.30;;;1.80;;
29246;SDS011;16272;48.188;9.964;2023-08-30T14:44:32;4.80;;;1.50;;
29246;SDS011;16272;48.188;9.964;2023-08-30T14:46:57;5.20;;;1.97;;